createdAt,value
2018-08-31T00:01:38.441Z,75.27
2018-08-31T00:04:43.946Z,75.20
2018-08-31T00:07:29.249Z,75.91
2018-08-31T00:12:19.759Z,75.97
2018-08-31T00:14:48.723Z,75.96
2018-08-31T00:17:17.652Z,75.69
2018-08-31T00:19:46.309Z,75.51
2018-08-31T00:22:14.997Z,76.21
2018-08-31T00:24:59.482Z,74.88
2018-08-31T00:27:39.042Z,74.33
2018-08-31T00:30:18.633Z,74.94
2018-08-31T00:38:03.201Z,75.39
2018-08-31T00:41:11.746Z,75.38
2018-08-31T00:45:49.523Z,76.04
2018-08-31T00:48:18.097Z,76.14
2018-08-31T00:50:46.677Z,75.73
2018-08-31T00:53:15.361Z,76.04
2018-08-31T00:55:43.962Z,76.00
2018-08-31T00:58:12.570Z,76.21
2018-08-31T01:00:41.412Z,76.18
2018-08-31T01:03:10.117Z,76.04
2018-08-31T01:05:38.887Z,75.66
2018-08-31T01:08:07.896Z,75.19
2018-08-31T01:10:36.920Z,74.65
2018-08-31T01:13:05.557Z,75.46
2018-08-31T01:15:34.141Z,75.84
2018-08-31T01:18:02.804Z,75.78
2018-08-31T01:20:31.432Z,75.80
2018-08-31T01:23:00.046Z,76.77
2018-08-31T01:25:28.728Z,76.86
2018-08-31T01:27:57.539Z,77.05
2018-08-31T01:30:26.203Z,77.46
2018-08-31T01:32:54.966Z,77.43
2018-08-31T01:35:23.594Z,77.67
2018-08-31T01:37:52.183Z,77.48
2018-08-31T01:40:20.834Z,77.96
2018-08-31T01:42:49.424Z,77.65
2018-08-31T01:45:18.035Z,78.44
2018-08-31T01:47:46.601Z,78.13
2018-08-31T01:50:15.234Z,78.19
2018-08-31T01:52:43.895Z,77.72
2018-08-31T01:55:12.474Z,77.70
2018-08-31T01:57:41.037Z,78.06
2018-08-31T02:00:09.976Z,78.55
2018-08-31T02:02:38.553Z,78.14
2018-08-31T02:05:07.310Z,78.90
2018-08-31T02:07:35.930Z,78.47
2018-08-31T02:10:05.359Z,78.18
2018-08-31T02:12:34.022Z,78.01
2018-08-31T02:15:02.665Z,78.29
2018-08-31T02:17:31.335Z,78.73
2018-08-31T02:19:59.957Z,78.04
2018-08-31T02:22:28.625Z,78.45
2018-08-31T02:24:57.313Z,78.06
2018-08-31T02:27:26.006Z,78.19
2018-08-31T02:29:54.618Z,78.58
2018-08-31T02:32:23.251Z,78.46
2018-08-31T02:34:51.923Z,78.76
2018-08-31T02:37:20.612Z,78.99
2018-08-31T02:39:49.281Z,78.56
2018-08-31T02:42:18.016Z,79.30
2018-08-31T02:44:52.049Z,78.97
2018-08-31T02:47:20.610Z,79.65
2018-08-31T02:49:49.352Z,80.06
2018-08-31T02:52:17.914Z,79.95
2018-08-31T02:54:46.958Z,79.60
2018-08-31T02:57:15.555Z,79.42
2018-08-31T02:59:44.141Z,79.90
2018-08-31T03:02:12.721Z,79.74
2018-08-31T03:04:41.389Z,79.98
2018-08-31T03:07:10.014Z,80.19
2018-08-31T03:09:38.661Z,80.10
2018-08-31T03:12:07.275Z,80.56
2018-08-31T03:14:35.864Z,79.78
2018-08-31T03:17:04.510Z,80.55
2018-08-31T03:19:33.197Z,80.49
2018-08-31T03:22:01.801Z,81.28
2018-08-31T03:24:31.126Z,81.99
2018-08-31T03:26:59.701Z,82.00
2018-08-31T03:29:28.317Z,81.70
2018-08-31T03:31:56.994Z,81.89
2018-08-31T03:34:25.599Z,81.54
2018-08-31T03:36:54.256Z,80.63
2018-08-31T03:39:23.389Z,80.52
2018-08-31T03:41:52.950Z,81.04
2018-08-31T03:44:21.637Z,81.36
2018-08-31T03:46:50.337Z,80.86
2018-08-31T03:49:19.025Z,81.49
2018-08-31T03:51:47.690Z,80.40
2018-08-31T03:54:16.369Z,80.77
2018-08-31T03:56:45.010Z,81.43
2018-08-31T03:59:13.621Z,81.65
2018-08-31T04:01:42.320Z,81.22
2018-08-31T04:04:10.972Z,80.91
2018-08-31T04:06:39.565Z,80.74
2018-08-31T04:09:08.855Z,81.13
2018-08-31T04:11:37.433Z,80.77
2018-08-31T04:14:06.286Z,80.83
2018-08-31T04:16:34.878Z,81.02
2018-08-31T04:19:07.585Z,80.82
2018-08-31T04:21:36.221Z,80.44
2018-08-31T04:24:04.809Z,80.65
2018-08-31T04:26:33.470Z,80.18
2018-08-31T04:29:02.060Z,80.28
2018-08-31T04:31:30.710Z,80.21
2018-08-31T04:33:59.471Z,80.12
2018-08-31T04:36:28.079Z,79.85
2018-08-31T04:38:56.668Z,80.00
2018-08-31T04:41:25.319Z,80.11
2018-08-31T04:43:54.071Z,79.52
2018-08-31T04:46:23.277Z,78.58
2018-08-31T04:48:51.906Z,78.96
2018-08-31T04:51:20.510Z,78.73
2018-08-31T04:53:49.067Z,78.91
2018-08-31T04:56:17.647Z,78.90
2018-08-31T04:58:46.269Z,79.16
2018-08-31T05:01:16.096Z,78.79
2018-08-31T05:03:44.727Z,78.62
2018-08-31T05:06:13.329Z,79.00
2018-08-31T05:08:41.921Z,77.75
2018-08-31T05:11:10.636Z,78.08
2018-08-31T05:13:39.390Z,77.80
2018-08-31T05:16:08.917Z,77.07
2018-08-31T05:18:37.523Z,77.10
2018-08-31T05:21:06.182Z,77.47
2018-08-31T05:23:34.806Z,76.37
2018-08-31T05:26:03.498Z,76.15
2018-08-31T05:28:32.282Z,76.43
2018-08-31T05:31:03.432Z,75.67
2018-08-31T05:33:32.264Z,76.16
2018-08-31T05:36:00.901Z,74.63
2018-08-31T05:38:31.900Z,74.63
2018-08-31T05:41:00.573Z,74.41
2018-08-31T05:43:29.154Z,74.07
2018-08-31T05:45:57.833Z,73.92
2018-08-31T05:48:26.445Z,73.44
2018-08-31T05:50:55.085Z,73.27
2018-08-31T05:53:23.748Z,73.43
2018-08-31T05:55:52.397Z,73.16
2018-08-31T05:58:21.076Z,72.13
2018-08-31T06:00:49.670Z,72.00
2018-08-31T06:03:18.272Z,71.27
2018-08-31T06:05:47.049Z,71.02
2018-08-31T06:08:15.701Z,71.07
2018-08-31T06:10:44.338Z,70.57
2018-08-31T06:13:13.238Z,70.87
2018-08-31T06:15:41.897Z,70.71
2018-08-31T06:18:10.746Z,69.79
2018-08-31T06:20:39.455Z,69.43
2018-08-31T06:23:08.156Z,69.50
2018-08-31T06:25:36.852Z,69.84
2018-08-31T06:28:05.632Z,68.81
2018-08-31T06:30:34.512Z,68.27
2018-08-31T06:33:03.696Z,68.12
2018-08-31T06:35:32.390Z,69.00
2018-08-31T06:38:01.082Z,68.01
2018-08-31T06:40:29.776Z,67.65
2018-08-31T06:42:58.478Z,66.89
2018-08-31T06:45:27.206Z,67.14
2018-08-31T06:47:55.878Z,66.52
2018-08-31T06:50:24.489Z,65.66
2018-08-31T06:52:53.143Z,66.75
2018-08-31T06:55:21.858Z,66.98
2018-08-31T06:57:50.617Z,66.06
2018-08-31T07:00:19.318Z,66.17
2018-08-31T07:02:47.949Z,66.35
2018-08-31T07:05:16.605Z,66.56
2018-08-31T07:07:45.373Z,66.36
2018-08-31T07:10:14.118Z,66.07
2018-08-31T07:12:42.865Z,65.75
2018-08-31T07:15:11.694Z,66.60
2018-08-31T07:17:41.031Z,66.58
2018-08-31T07:20:09.723Z,66.57
2018-08-31T07:22:38.464Z,65.77
2018-08-31T07:25:07.232Z,65.96
2018-08-31T07:27:35.988Z,65.77
2018-08-31T07:30:04.898Z,66.63
2018-08-31T07:32:34.480Z,66.35
2018-08-31T07:35:03.148Z,66.38
2018-08-31T07:37:31.788Z,65.98
2018-08-31T07:40:00.441Z,65.51
2018-08-31T07:42:29.066Z,64.85
2018-08-31T07:44:57.651Z,64.39
2018-08-31T07:47:26.242Z,64.96
2018-08-31T07:49:54.882Z,64.67
2018-08-31T07:52:23.531Z,64.21
2018-08-31T07:54:52.285Z,63.16
2018-08-31T07:57:20.906Z,63.35
2018-08-31T07:59:49.576Z,62.65
2018-08-31T08:02:18.267Z,63.23
2018-08-31T08:04:46.945Z,62.99
2018-08-31T08:07:15.590Z,62.37
2018-08-31T08:09:44.317Z,61.15
2018-08-31T08:12:12.996Z,60.34
2018-08-31T08:14:41.667Z,60.39
2018-08-31T08:17:10.261Z,59.70
2018-08-31T08:19:39.011Z,59.15
2018-08-31T08:22:14.459Z,58.10
2018-08-31T08:24:43.181Z,56.77
2018-08-31T08:27:11.822Z,55.76
2018-08-31T08:29:40.449Z,56.07
2018-08-31T08:32:09.101Z,55.32
2018-08-31T08:34:37.697Z,55.11
2018-08-31T08:37:06.371Z,55.32
2018-08-31T08:39:35.029Z,54.87
2018-08-31T08:42:03.703Z,54.56
2018-08-31T08:44:32.391Z,54.34
2018-08-31T08:47:01.094Z,53.68
2018-08-31T08:49:29.911Z,53.64
2018-08-31T08:51:58.711Z,53.40
2018-08-31T08:54:27.374Z,52.79
2018-08-31T08:56:56.226Z,52.31
2018-08-31T08:59:24.939Z,51.70
2018-08-31T09:01:53.556Z,51.20
2018-08-31T09:04:22.272Z,50.92
2018-08-31T09:06:50.913Z,50.86
2018-08-31T09:09:19.571Z,50.55
2018-08-31T09:11:54.483Z,50.22
2018-08-31T09:14:23.167Z,50.78
2018-08-31T09:16:51.811Z,49.66
2018-08-31T09:19:20.776Z,49.61
2018-08-31T09:21:49.834Z,49.18
2018-08-31T09:24:18.733Z,50.21
2018-08-31T09:26:47.725Z,50.91
2018-08-31T09:29:18.510Z,50.58
2018-08-31T09:31:47.369Z,50.53
2018-08-31T09:34:16.371Z,50.95
2018-08-31T09:36:45.235Z,49.78
2018-08-31T09:39:13.907Z,49.06
2018-08-31T09:41:43.281Z,48.68
2018-08-31T09:44:11.973Z,47.37
2018-08-31T09:46:41.336Z,46.96
2018-08-31T09:49:11.179Z,47.39
2018-08-31T09:51:40.011Z,46.62
2018-08-31T09:54:08.902Z,46.19
2018-08-31T09:56:37.727Z,46.37
2018-08-31T09:59:06.728Z,46.81
2018-08-31T10:01:37.899Z,47.20
2018-08-31T10:04:07.342Z,46.58
2018-08-31T10:06:36.300Z,47.15
2018-08-31T10:09:06.883Z,47.87
2018-08-31T10:11:35.696Z,47.84
2018-08-31T10:14:04.806Z,47.87
2018-08-31T10:16:38.906Z,46.82
2018-08-31T10:19:07.660Z,45.97
2018-08-31T10:21:36.363Z,44.42
2018-08-31T10:24:05.057Z,44.27
2018-08-31T10:26:33.735Z,43.66
2018-08-31T10:29:02.412Z,43.34
2018-08-31T10:31:36.079Z,43.30
2018-08-31T10:34:04.830Z,42.16
2018-08-31T10:36:33.533Z,42.10
2018-08-31T10:39:02.211Z,42.21
2018-08-31T10:41:30.931Z,41.58
2018-08-31T10:43:59.642Z,41.96
2018-08-31T10:46:28.363Z,42.33
2018-08-31T10:48:57.037Z,42.11
2018-08-31T10:51:25.779Z,42.96
2018-08-31T10:53:54.568Z,42.86
2018-08-31T10:56:23.334Z,43.16
2018-08-31T10:58:52.142Z,42.73
2018-08-31T11:01:20.850Z,42.94
2018-08-31T11:03:49.579Z,42.85
2018-08-31T11:06:18.279Z,42.35
2018-08-31T11:08:47.111Z,42.18
2018-08-31T11:11:15.815Z,41.08
2018-08-31T11:13:44.534Z,40.71
2018-08-31T11:16:13.269Z,40.84
2018-08-31T11:18:42.039Z,41.19
2018-08-31T11:21:13.261Z,41.27
2018-08-31T11:23:42.475Z,40.81
2018-08-31T11:26:11.220Z,41.15
2018-08-31T11:28:39.950Z,41.60
2018-08-31T11:31:08.683Z,41.95
2018-08-31T11:33:37.867Z,42.45
2018-08-31T11:36:06.721Z,42.00
2018-08-31T11:38:35.467Z,42.54
2018-08-31T11:41:04.165Z,41.58
2018-08-31T11:43:32.923Z,41.67
2018-08-31T11:46:01.665Z,41.54
2018-08-31T11:48:30.471Z,41.22
2018-08-31T11:50:59.306Z,41.05
2018-08-31T11:53:28.087Z,40.50
2018-08-31T11:55:56.830Z,40.56
2018-08-31T11:58:25.590Z,39.78
2018-08-31T12:00:54.746Z,39.47
2018-08-31T12:03:23.394Z,38.89
2018-08-31T12:05:52.059Z,38.21
2018-08-31T12:08:20.693Z,38.83
2018-08-31T12:10:49.331Z,38.30
2018-08-31T12:13:17.978Z,37.39
2018-08-31T12:15:46.673Z,37.87
2018-08-31T12:18:15.345Z,38.02
2018-08-31T12:20:44.020Z,36.86
2018-08-31T12:23:12.679Z,37.10
2018-08-31T12:25:41.327Z,37.06
2018-08-31T12:28:09.988Z,36.93
2018-08-31T12:30:38.666Z,35.94
2018-08-31T12:33:07.582Z,35.09
2018-08-31T12:35:36.238Z,36.36
2018-08-31T12:38:04.930Z,36.38
2018-08-31T12:40:33.616Z,35.13
2018-08-31T12:43:02.353Z,34.77
2018-08-31T12:45:31.066Z,34.47
2018-08-31T12:47:59.717Z,34.13
2018-08-31T12:50:28.421Z,34.55
2018-08-31T12:52:58.128Z,35.16
2018-08-31T12:55:26.835Z,36.23
2018-08-31T12:57:55.490Z,36.69
2018-08-31T13:00:24.221Z,36.42
2018-08-31T13:02:53.216Z,36.98
2018-08-31T13:05:21.918Z,36.97
2018-08-31T13:07:50.547Z,37.84
2018-08-31T13:10:19.331Z,36.85
2018-08-31T13:12:48.081Z,37.93
2018-08-31T13:15:16.794Z,37.37
2018-08-31T13:17:45.534Z,37.22
2018-08-31T13:20:14.185Z,37.44
2018-08-31T13:22:42.943Z,38.24
2018-08-31T13:25:11.653Z,38.63
2018-08-31T13:27:40.313Z,38.09
2018-08-31T13:30:09.097Z,38.41
2018-08-31T13:32:37.785Z,37.73
2018-08-31T13:35:07.171Z,37.92
2018-08-31T13:37:35.859Z,37.43
2018-08-31T13:40:04.558Z,37.24
2018-08-31T13:42:33.245Z,36.84
2018-08-31T13:45:01.913Z,37.02
2018-08-31T13:47:31.037Z,37.30
2018-08-31T13:49:59.854Z,37.86
2018-08-31T13:52:28.593Z,38.89
2018-08-31T13:54:57.203Z,38.32
2018-08-31T13:57:25.961Z,38.21
2018-08-31T13:59:54.583Z,37.62
2018-08-31T14:02:23.263Z,38.00
2018-08-31T14:04:52.090Z,38.20
2018-08-31T14:07:20.710Z,37.85
2018-08-31T14:09:49.498Z,36.98
2018-08-31T14:12:18.199Z,36.04
2018-08-31T14:14:46.903Z,34.18
2018-08-31T14:17:15.967Z,31.25
2018-08-31T14:19:45.918Z,29.72
2018-08-31T14:22:14.785Z,28.83
2018-08-31T14:24:43.466Z,29.60
2018-08-31T14:27:12.160Z,30.58
2018-08-31T14:29:40.979Z,30.99
2018-08-31T14:32:09.611Z,31.98
2018-08-31T14:34:38.311Z,32.57
2018-08-31T14:37:07.136Z,32.98
2018-08-31T14:39:35.890Z,33.27
2018-08-31T14:42:04.558Z,33.81
2018-08-31T14:44:33.239Z,34.34
2018-08-31T14:47:01.982Z,36.12
2018-08-31T14:49:31.013Z,36.25
2018-08-31T14:51:59.678Z,37.45
2018-08-31T14:54:28.310Z,38.20
2018-08-31T14:56:56.990Z,39.49
2018-08-31T14:59:25.711Z,39.54
2018-08-31T15:01:54.489Z,40.21
2018-08-31T15:04:23.531Z,40.20
2018-08-31T15:06:52.241Z,40.76
2018-08-31T15:09:20.922Z,40.85
2018-08-31T15:11:49.645Z,40.82
2018-08-31T15:14:18.387Z,41.56
2018-08-31T15:16:47.110Z,41.18
2018-08-31T15:19:15.894Z,41.59
2018-08-31T15:21:44.566Z,41.88
2018-08-31T15:24:13.326Z,41.89
2018-08-31T15:26:42.010Z,41.46
2018-08-31T15:29:10.754Z,41.72
2018-08-31T15:31:39.408Z,42.15
2018-08-31T15:34:08.102Z,41.43
2018-08-31T15:36:36.809Z,41.58
2018-08-31T15:39:07.815Z,41.87
2018-08-31T15:41:36.569Z,41.67
2018-08-31T15:44:05.319Z,41.69
2018-08-31T15:46:33.980Z,41.97
2018-08-31T15:49:02.666Z,42.15
2018-08-31T15:51:31.401Z,41.33
2018-08-31T15:54:00.082Z,39.24
2018-08-31T15:56:28.724Z,38.53
2018-08-31T15:58:57.381Z,38.58
2018-08-31T16:01:26.009Z,38.17
2018-08-31T16:03:54.702Z,38.52
2018-08-31T16:06:23.378Z,38.74
2018-08-31T16:08:52.046Z,36.96
2018-08-31T16:11:20.726Z,34.10
2018-08-31T16:13:49.476Z,31.26
2018-08-31T16:16:18.450Z,29.34
2018-08-31T16:18:47.224Z,28.01
2018-08-31T16:21:15.898Z,26.75
2018-08-31T16:23:44.619Z,26.41
2018-08-31T16:26:13.253Z,26.28
2018-08-31T16:28:41.884Z,26.10
2018-08-31T16:31:10.719Z,26.15
2018-08-31T16:33:39.309Z,27.79
2018-08-31T16:36:08.529Z,30.10
2018-08-31T16:38:37.177Z,31.80
2018-08-31T16:41:05.798Z,33.68
2018-08-31T16:43:34.448Z,35.34
2018-08-31T16:46:03.205Z,36.23
2018-08-31T16:48:31.834Z,37.59
2018-08-31T16:51:00.477Z,38.75
2018-08-31T16:53:29.225Z,39.83
2018-08-31T16:55:57.884Z,40.50
2018-08-31T16:58:26.670Z,41.76
2018-08-31T17:00:55.246Z,42.21
2018-08-31T17:03:23.889Z,43.15
2018-08-31T17:05:52.502Z,43.82
2018-08-31T17:08:21.122Z,44.49
2018-08-31T17:10:55.321Z,45.32
2018-08-31T17:13:23.978Z,46.21
2018-08-31T17:15:52.590Z,47.18
2018-08-31T17:18:21.256Z,47.76
2018-08-31T17:20:49.852Z,48.17
2018-08-31T17:23:18.495Z,48.67
2018-08-31T17:25:47.128Z,48.81
2018-08-31T17:28:20.998Z,49.07
2018-08-31T17:30:53.767Z,49.43
2018-08-31T17:33:27.553Z,50.26
2018-08-31T17:36:01.447Z,50.46
2018-08-31T17:38:30.122Z,51.52
2018-08-31T17:40:58.756Z,52.08
2018-08-31T17:43:27.398Z,52.92
2018-08-31T17:45:57.004Z,53.15
2018-08-31T17:48:26.038Z,53.36
2018-08-31T17:50:55.031Z,53.86
2018-08-31T17:53:23.625Z,54.01
2018-08-31T17:55:52.345Z,53.68
2018-08-31T17:58:20.986Z,53.49
2018-08-31T18:00:49.694Z,53.91
2018-08-31T18:03:18.286Z,53.93
2018-08-31T18:05:46.963Z,54.46
2018-08-31T18:08:15.570Z,54.47
2018-08-31T18:10:44.278Z,54.91
2018-08-31T18:13:12.901Z,56.17
2018-08-31T18:15:41.578Z,56.63
2018-08-31T18:18:10.241Z,56.60
2018-08-31T18:20:38.966Z,57.71
2018-08-31T18:23:07.606Z,58.02
2018-08-31T18:25:36.282Z,57.76
2018-08-31T18:28:04.919Z,57.55
2018-08-31T18:30:33.538Z,57.50
2018-08-31T18:33:02.226Z,56.92
2018-08-31T18:35:30.875Z,57.68
2018-08-31T18:37:59.509Z,58.10
2018-08-31T18:40:28.206Z,57.47
2018-08-31T18:42:57.383Z,57.76
2018-08-31T18:45:26.441Z,57.87
2018-08-31T18:47:55.086Z,58.64
2018-08-31T18:50:23.747Z,58.91
2018-08-31T18:52:52.369Z,58.84
2018-08-31T18:55:21.010Z,57.66
2018-08-31T18:57:49.714Z,57.65
2018-08-31T19:00:18.394Z,57.69
2018-08-31T19:02:47.387Z,57.62
2018-08-31T19:05:16.109Z,58.48
2018-08-31T19:07:44.797Z,59.42
2018-08-31T19:10:13.450Z,58.57
2018-08-31T19:12:42.118Z,58.01
2018-08-31T19:15:10.764Z,57.98
2018-08-31T19:17:39.506Z,58.42
2018-08-31T19:20:08.204Z,58.11
2018-08-31T19:22:36.991Z,57.44
2018-08-31T19:25:05.718Z,57.96
2018-08-31T19:27:34.319Z,57.97
2018-08-31T19:30:02.951Z,56.44
2018-08-31T19:32:31.611Z,56.34
2018-08-31T19:35:00.317Z,57.07
2018-08-31T19:37:28.994Z,57.72
2018-08-31T19:39:57.707Z,58.34
2018-08-31T19:42:26.461Z,58.30
2018-08-31T19:44:55.233Z,58.91
2018-08-31T19:47:24.007Z,58.81
2018-08-31T19:49:53.079Z,59.07
2018-08-31T19:52:21.763Z,59.03
2018-08-31T19:54:50.390Z,59.97
2018-08-31T19:57:19.149Z,59.61
2018-08-31T19:59:47.813Z,60.00
2018-08-31T20:02:16.510Z,60.02
2018-08-31T20:04:45.202Z,59.75
2018-08-31T20:07:14.227Z,59.11
2018-08-31T20:09:43.020Z,59.60
2018-08-31T20:12:11.755Z,60.79
2018-08-31T20:14:40.419Z,61.79
2018-08-31T20:17:09.084Z,60.50
2018-08-31T20:19:37.779Z,60.26
2018-08-31T20:22:09.486Z,59.93
2018-08-31T20:24:38.154Z,60.86
2018-08-31T20:27:06.867Z,61.05
2018-08-31T20:29:35.503Z,63.61
2018-08-31T20:32:04.294Z,65.93
2018-08-31T20:34:32.961Z,68.32
2018-08-31T20:37:01.580Z,69.50
2018-08-31T20:39:30.236Z,70.28
2018-08-31T20:41:58.861Z,70.43
2018-08-31T20:44:27.646Z,71.86
2018-08-31T20:46:56.284Z,73.29
2018-08-31T20:49:24.931Z,73.99
2018-08-31T20:51:53.578Z,74.43
2018-08-31T20:54:22.359Z,75.20
2018-08-31T20:56:51.042Z,75.00
2018-08-31T20:59:19.664Z,76.08
2018-08-31T21:01:48.323Z,75.72
2018-08-31T21:04:17.007Z,76.13
2018-08-31T21:06:45.750Z,76.46
2018-08-31T21:09:14.421Z,77.28
2018-08-31T21:11:43.086Z,77.15
2018-08-31T21:14:11.737Z,76.88
2018-08-31T21:16:40.343Z,75.83
2018-08-31T21:19:09.005Z,75.88
2018-08-31T21:21:37.948Z,74.50
2018-08-31T21:24:06.622Z,71.56
2018-08-31T21:26:35.274Z,70.78
2018-08-31T21:29:03.950Z,69.22
2018-08-31T21:31:32.639Z,71.91
2018-08-31T21:34:01.326Z,72.72
2018-08-31T21:36:30.013Z,73.80
2018-08-31T21:38:58.711Z,72.77
2018-08-31T21:41:27.395Z,71.78
2018-08-31T21:43:56.120Z,73.34
2018-08-31T21:46:24.763Z,72.54
2018-08-31T21:48:53.465Z,73.57
2018-08-31T21:51:22.150Z,73.21
2018-08-31T21:53:50.832Z,73.36
2018-08-31T21:56:19.487Z,74.22
2018-08-31T21:58:48.200Z,75.07
2018-08-31T22:01:22.214Z,76.54
2018-08-31T22:03:50.966Z,76.07
2018-08-31T22:06:19.607Z,76.24
2018-08-31T22:08:48.263Z,76.74
2018-08-31T22:11:16.936Z,76.08
2018-08-31T22:13:45.638Z,77.06
2018-08-31T22:16:14.312Z,76.15
2018-08-31T22:18:43.001Z,75.22
2018-08-31T22:21:11.727Z,71.34
2018-08-31T22:23:40.354Z,70.50
2018-08-31T22:26:09.083Z,72.31
2018-08-31T22:28:37.739Z,73.41
2018-08-31T22:31:06.456Z,71.21
2018-08-31T22:33:35.123Z,71.45
2018-08-31T22:36:03.919Z,71.76
2018-08-31T22:38:32.646Z,71.64
2018-08-31T22:41:01.290Z,71.93
2018-08-31T22:43:35.074Z,73.08
2018-08-31T22:46:03.756Z,70.61
2018-08-31T22:48:32.480Z,70.61
2018-08-31T22:51:01.105Z,70.36
2018-08-31T22:53:29.837Z,70.87
2018-08-31T22:55:58.499Z,71.04
2018-08-31T22:58:27.191Z,72.87
2018-08-31T23:00:55.921Z,71.11
2018-08-31T23:03:24.662Z,71.04
2018-08-31T23:05:54.626Z,72.38
2018-08-31T23:08:23.286Z,73.63
2018-08-31T23:10:51.987Z,74.26
2018-08-31T23:13:20.701Z,74.82
2018-08-31T23:15:49.266Z,75.02
2018-08-31T23:18:17.985Z,75.22
2018-08-31T23:20:46.742Z,75.06
2018-08-31T23:23:20.357Z,74.31
2018-08-31T23:25:49.080Z,74.32
2018-08-31T23:28:18.378Z,73.83
2018-08-31T23:30:47.165Z,75.34
2018-08-31T23:33:15.991Z,75.50
2018-08-31T23:35:44.843Z,74.25
2018-08-31T23:38:14.011Z,74.32
2018-08-31T23:40:42.739Z,74.57
2018-08-31T23:43:11.395Z,75.46
2018-08-31T23:45:40.012Z,75.64
2018-08-31T23:48:08.686Z,76.09
2018-08-31T23:50:37.266Z,75.55
2018-08-31T23:53:05.969Z,74.05
2018-08-31T23:55:34.648Z,74.59
2018-08-31T23:58:03.395Z,74.24
